< < Back
Terminal Aerodrome Forecast


Current Version              Previous Versions:   1  2  3  4  5  6  7  8  9  

Terminal Aerodrome Forecast

877
FTUS44 KHUN 280342 AAA
TAFHSV
TAF AMD
KHSV 280342Z 2804/2824 VRB05KT P6SM BKN030
     FM280900 VRB04KT P6SM SKC=

Latest METAR

267
SAUS80 KWBC 281556
MTRHSV
METAR KHSV 281553Z 08003KT 10SM CLR 05/M03 A3033 RMK AO2 SLP272
T00501033


USA.gov is the U.S. government's official web portal to all federal, state and local government web resources and services.